• Join FlightAware (Why Join?)
  • Login
  • US Flag 
11:03AM EDT


 

Airport Tracker/Info


-or-


 

Live Flight TrackerFlight Track Log ✈ AWE2690 ✈ 14-Sep-2013 ✈ KORF - KCLT

Flight Track Log - Related Links

Times and Time Zones

All times are in EDT time to prevent confusion due to time zone crossing. See the AWE2690 flight status page for this flight to view local times or setup timezone preferences in your user account.

Time Position Orientation Groundspeed Altitude Reporting Facility
EDT Latitude Longitude Course Direction KTS MPH feet Rate Location/Type
11:09AM 36.9097 -76.1867 247° West 163 188 700  Level Washington Center
11:09AM 36.9244 -76.1739 35° Northeast 164 189 1,900 2,280 Climbing Washington Center
11:10AM 36.9725 -76.1769 357° North 207 238 3,900 2,220 Climbing Washington Center
11:11AM 36.8006 -76.4872 258° West  Level Estimated
11:11AM 37.0392 -76.1903 351° North 227 261 6,700  Level Washington Center
11:12AM 36.7692 -76.5824 253° West  Level Estimated
11:12AM 37.0367 -76.2736 268° West 278 320 9,000  Level Washington Center
11:13AM 36.7578 -76.6843 262° West  Level FlightAware Approximate
11:13AM 37.0069 -76.3644 248° West 283 326 11,200  Level Washington Center
11:14AM 36.7257 -76.7791 247° West  Level Estimated
11:14AM 36.9458 -76.4494 228° Southwest 301 346 13,500  Level Washington Center
11:15AM 36.9075 -76.5503 245° Southwest 316 364 15,900 2,220 Climbing Washington Center
11:16AM 36.8669 -76.6564 244° Southwest 322 371 18,000 1,980 Climbing Washington Center
11:17AM 36.8139 -76.7594 237° Southwest 341 392 19,900 1,860 Climbing Washington Center
11:18AM 36.7625 -76.8700 240° Southwest 353 406 21,800 1,020 Climbing Washington Center
11:19AM 36.7111 -76.9883 242° Southwest 375 432 22,000 60 Climbing Washington Center
11:20AM 36.6575 -77.1144 242° Southwest 389 448 22,000  Level Washington Center
11:21AM 36.5769 -77.2214 227° Southwest 409 471 22,000  Level Washington Center
11:22AM 36.5250 -77.3494 243° Southwest 423 487 22,000  Level Washington Center
11:23AM 36.4772 -77.4775 245° Southwest 417 480 22,000  Level Washington Center
11:24AM 36.4272 -77.6031 244° Southwest 412 474 22,000  Level Washington Center
11:25AM 36.3706 -77.7306 241° Southwest 412 474 22,000  Level Washington Center
11:26AM 36.3119 -77.8578 240° Southwest 418 481 22,000  Level Washington Center
11:27AM 36.2533 -77.9797 239° Southwest 418 481 22,000  Level Washington Center
11:28AM 36.1964 -78.1092 241° Southwest 423 487 22,000  Level Washington Center
11:29AM 36.1375 -78.2333 240° Southwest 423 487 22,000  Level Washington Center
11:30AM 36.0761 -78.3597 239° Southwest 423 487 22,000  Level Washington Center
11:31AM 36.0169 -78.4836 239° Southwest 423 487 22,000  Level Washington Center
11:32AM 35.9617 -78.6022 240° Southwest 416 479 22,000  Level Washington Center
11:33AM 35.9111 -78.7053 239° Southwest 385 443 22,000 -660 Level Washington Center
11:34AM 35.8667 -78.8061 241° Southwest 355 409 20,700 -1,380 Descending Washington Center
11:35AM 35.8467 -78.9258 258° West 347 399 19,300 -1,440 Descending Washington Center
11:36AM 35.8328 -79.0481 262° West 354 407 17,800 -1,140 Descending Washington Center
11:37AM 35.8275 -79.1556 267° West 359 413 17,000 -900 Descending Washington Center
11:38AM 35.8194 -79.2883 266° West 354 407 16,100 -360 Descending Washington Center
11:40AM 35.8064 -79.5244 266° West 352 405 16,000 -60 Descending Atlanta Center
11:41AM 35.8131 -79.6522 274° West 342 394 16,000  Level Atlanta Center
11:42AM 35.8131 -79.7700 270° West 342 394 16,000  Level Atlanta Center
11:43AM 35.8108 -79.8906 269° West 347 399 16,000 -300 Level Atlanta Center
11:44AM 35.8144 -79.9953 272° West 347 399 15,500 -840 Descending Atlanta Center
11:45AM 35.8128 -80.0722 268° West 345 397 14,800 -1,260 Descending Atlanta Center
11:45AM 35.8142 -80.1156 272° West 341 392 14,400 -600 Descending Atlanta Center
11:45AM 35.8119 -80.1106 119° Southeast 347 399 14,500 -1,020 Climbing Atlanta Center
11:46AM 35.8133 -80.2233 271° West 317 365 13,400 -1,020 Descending Atlanta Center
11:46AM 35.8133 -80.2233 271° West 347 399 13,500 -420 Climbing Atlanta Center
11:47AM 35.8083 -80.3361 267° West 304 350 13,000 -540 Descending Atlanta Center
11:47AM 35.8064 -80.3389 229° Southwest 330 380 13,000  Level Atlanta Center
11:48AM 35.7886 -80.4369 257° West 313 360 13,000 60 Level Atlanta Center
11:48AM 35.7844 -80.4394 206° Southwest 311 358 13,100  Climbing Atlanta Center
11:49AM 35.7153 -80.5014 216° Southwest 322 371 13,000 -120 Descending Atlanta Center
11:49AM 35.7131 -80.5017 186° South 297 342 13,000 -1,260 Level Atlanta Center
11:50AM 35.6439 -80.5633 216° Southwest 302 348 11,700 -1,500 Descending Atlanta Center
11:51AM 35.5769 -80.6222 216° Southwest 309 356 10,100 -1,680 Descending Atlanta Center
11:51AM 35.5750 -80.6275 246° West 295 339 10,000 -120 Descending Atlanta Center
11:52AM 35.5219 -80.6706 213° Southwest 291 335 10,000  Level Atlanta Center
11:52AM 35.5158 -80.6783 226° Southwest 253 291 10,000  Level Atlanta Center
11:53AM 35.4669 -80.7186 214° Southwest 261 300 10,000  Level Atlanta Center
11:53AM 35.4586 -80.7267 218° Southwest 242 278 10,000 60 Level Atlanta Center
11:54AM 35.4097 -80.7694 215° Southwest 254 292 10,100  Climbing Atlanta Center
11:54AM 35.3994 -80.7775 213° Southwest 247 284 10,000 -120 Descending Atlanta Center
11:55AM 35.3356 -80.8081 201° Southwest 258 297 10,000 -540 Level Atlanta Center
11:56AM 35.2686 -80.7953 171° South 238 274 9,000 -720 Descending Atlanta Center
11:57AM 35.2036 -80.7853 173° South 219 252 8,600 -1,140 Descending Atlanta Center
11:58AM 35.1450 -80.7775 174° South 218 251 6,700 -2,040 Descending Atlanta Center
11:59AM 35.0886 -80.7744 177° South 201 231 4,500 -1,380 Descending Atlanta Center
12:00PM 35.0300 -80.7717 178° South 193 222 3,900 -540 Descending Atlanta Center
12:01PM 34.9803 -80.7814 189° South 197 227 3,400 -480 Descending Atlanta Center
12:02PM 34.9675 -80.8528 258° West 211 243 3,000 -240 Descending Atlanta Center
12:04PM 35.0019 -80.8919 317° Northwest 173 199 3,000  Level Atlanta Center
12:05PM 35.0467 -80.9233 330° Northwest 164 189 3,000 -120 Level Atlanta Center
12:06PM 35.0925 -80.9267 357° North 161 185 2,800 -420 Descending Atlanta Center
12:07PM 35.1344 -80.9303 356° North 143 165 2,200 -840 Descending Atlanta Center
12:08PM 35.1719 -80.9339 355° North 133 153 1,200 -1,020 Descending Atlanta Center